createdAt,value
2023-05-06T00:00:17.607Z,100739.25
2023-05-06T00:03:19.518Z,100732.72
2023-05-06T00:06:21.374Z,100725.19
2023-05-06T00:09:24.356Z,100738.75
2023-05-06T00:12:26.250Z,100736.06
2023-05-06T00:15:29.213Z,100721.66
2023-05-06T00:18:32.562Z,100717.31
2023-05-06T00:21:34.431Z,100723.41
2023-05-06T00:24:36.245Z,100714.72
2023-05-06T00:27:38.831Z,100721.41
2023-05-06T00:30:40.413Z,100722.25
2023-05-06T00:33:42.612Z,100722.59
2023-05-06T00:36:44.595Z,100726.84
2023-05-06T00:39:46.353Z,100726.16
2023-05-06T00:42:48.071Z,100725.56
2023-05-06T00:45:51.348Z,100735.38
2023-05-06T00:48:53.580Z,100737.00
2023-05-06T00:51:56.531Z,100734.50
2023-05-06T00:54:58.655Z,100741.56
2023-05-06T00:58:01.222Z,100737.47
2023-05-06T01:01:03.238Z,100734.16
2023-05-06T01:04:05.061Z,100735.22
2023-05-06T01:07:44.016Z,100732.78
2023-05-06T01:10:57.780Z,100731.56
2023-05-06T01:14:07.874Z,100734.66
2023-05-06T01:17:12.984Z,100731.00
2023-05-06T01:20:18.291Z,100735.63
2023-05-06T01:23:20.263Z,100734.25
2023-05-06T01:26:22.757Z,100732.50
2023-05-06T01:29:24.393Z,100725.13
2023-05-06T01:32:58.500Z,100726.91
2023-05-06T01:36:08.680Z,100732.56
2023-05-06T01:39:28.952Z,100731.50
2023-05-06T01:42:32.173Z,100739.06
2023-05-06T01:45:36.716Z,100745.66
2023-05-06T01:48:39.955Z,100739.53
2023-05-06T01:51:48.067Z,100741.75
2023-05-06T01:54:49.664Z,100747.31
2023-05-06T01:57:51.740Z,100740.94
2023-05-06T02:00:53.531Z,100739.50
2023-05-06T02:03:55.761Z,100738.09
2023-05-06T02:06:58.675Z,100740.69
2023-05-06T02:10:00.341Z,100725.38
2023-05-06T02:13:02.570Z,100729.25
2023-05-06T02:16:04.726Z,100725.13
2023-05-06T02:19:07.704Z,100713.34
2023-05-06T02:22:09.438Z,100713.16
2023-05-06T02:25:11.429Z,100713.38
2023-05-06T02:28:13.399Z,100716.09
2023-05-06T02:31:16.294Z,100713.63
2023-05-06T02:34:18.037Z,100720.44
2023-05-06T02:37:19.954Z,100723.84
2023-05-06T02:40:21.725Z,100727.59
2023-05-06T02:43:23.390Z,100722.50
2023-05-06T02:46:25.230Z,100727.78
2023-05-06T02:49:27.191Z,100719.19
2023-05-06T02:52:29.077Z,100720.97
2023-05-06T02:55:30.932Z,100716.72
2023-05-06T02:58:32.846Z,100717.41
2023-05-06T03:01:34.728Z,100717.75
2023-05-06T03:04:36.559Z,100721.94
2023-05-06T03:07:38.914Z,100721.34
2023-05-06T03:10:42.051Z,100710.63
2023-05-06T03:13:44.104Z,100713.41
2023-05-06T03:16:46.053Z,100710.84
2023-05-06T03:19:50.765Z,100708.47
2023-05-06T03:22:53.520Z,100712.72
2023-05-06T03:25:57.151Z,100711.69
2023-05-06T03:28:59.151Z,100715.41
2023-05-06T03:32:07.320Z,100718.34
2023-05-06T03:35:15.810Z,100718.22
2023-05-06T03:38:21.273Z,100716.56
2023-05-06T03:41:29.923Z,100721.16
2023-05-06T03:44:31.933Z,100726.19
2023-05-06T03:47:35.386Z,100733.13
2023-05-06T03:50:39.185Z,100737.81
2023-05-06T03:53:41.158Z,100748.28
2023-05-06T03:56:42.786Z,100749.59
2023-05-06T03:59:45.000Z,100751.16
2023-05-06T04:02:46.926Z,100755.81
2023-05-06T04:05:56.293Z,100747.66
2023-05-06T04:09:00.990Z,100756.16
2023-05-06T04:12:03.815Z,100748.69
2023-05-06T04:15:07.464Z,100757.84
2023-05-06T04:18:10.354Z,100755.63
2023-05-06T04:21:15.956Z,100752.94
2023-05-06T04:24:23.187Z,100752.94
2023-05-06T04:27:27.716Z,100750.94
2023-05-06T04:30:30.228Z,100749.19
2023-05-06T04:33:32.910Z,100740.94
2023-05-06T04:36:38.346Z,100739.16
2023-05-06T04:40:02.237Z,100751.28
2023-05-06T04:43:06.366Z,100746.13
2023-05-06T04:46:08.741Z,100755.19
2023-05-06T04:49:12.917Z,100755.06
2023-05-06T04:52:15.604Z,100761.44
2023-05-06T04:55:17.457Z,100763.19
2023-05-06T04:58:23.687Z,100766.72
2023-05-06T05:01:26.453Z,100766.81
2023-05-06T05:04:28.120Z,100755.31
2023-05-06T05:07:29.904Z,100758.47
2023-05-06T05:10:31.968Z,100760.47
2023-05-06T05:13:34.967Z,100755.06
2023-05-06T05:16:38.432Z,100752.72
2023-05-06T05:19:41.231Z,100760.72
2023-05-06T05:22:44.647Z,100756.44
2023-05-06T05:25:46.447Z,100762.13
2023-05-06T05:28:48.651Z,100764.00
2023-05-06T05:31:50.363Z,100766.13
2023-05-06T05:34:53.156Z,100766.63
2023-05-06T05:37:55.146Z,100773.19
2023-05-06T05:40:58.222Z,100784.13
2023-05-06T05:44:00.388Z,100782.84
2023-05-06T05:47:02.921Z,100781.81
2023-05-06T05:50:06.462Z,100783.09
2023-05-06T05:53:08.545Z,100774.72
2023-05-06T05:56:12.446Z,100783.31
2023-05-06T05:59:14.338Z,100783.44
2023-05-06T06:02:17.521Z,100787.50
2023-05-06T06:05:19.516Z,100774.97
2023-05-06T06:08:21.843Z,100778.44
2023-05-06T06:11:28.661Z,100773.53
2023-05-06T06:14:30.578Z,100771.56
2023-05-06T06:17:32.730Z,100779.78
2023-05-06T06:20:35.511Z,100788.75
2023-05-06T06:23:37.773Z,100790.88
2023-05-06T06:26:40.836Z,100789.63
2023-05-06T06:29:42.559Z,100779.13
2023-05-06T06:32:49.764Z,100784.94
2023-05-06T06:35:51.450Z,100786.66
2023-05-06T06:38:53.135Z,100794.78
2023-05-06T06:41:58.133Z,100804.34
2023-05-06T06:44:59.735Z,100795.66
2023-05-06T06:48:01.765Z,100800.13
2023-05-06T06:51:03.774Z,100789.31
2023-05-06T06:54:05.698Z,100802.97
2023-05-06T06:57:07.427Z,100805.06
2023-05-06T07:00:10.340Z,100811.44
2023-05-06T07:03:15.693Z,100805.06
2023-05-06T07:06:17.402Z,100811.63
2023-05-06T07:09:19.144Z,100801.50
2023-05-06T07:12:20.911Z,100810.41
2023-05-06T07:15:22.880Z,100809.75
2023-05-06T07:18:25.104Z,100801.66
2023-05-06T07:21:27.189Z,100822.38
2023-05-06T07:24:28.758Z,100826.84
2023-05-06T07:27:30.784Z,100821.53
2023-05-06T07:30:32.804Z,100829.47
2023-05-06T07:33:34.587Z,100828.94
2023-05-06T07:36:40.662Z,100823.84
2023-05-06T07:39:43.206Z,100835.94
2023-05-06T07:42:44.967Z,100830.22
2023-05-06T07:45:46.605Z,100843.06
2023-05-06T07:48:49.282Z,100837.75
2023-05-06T07:51:51.262Z,100836.97
2023-05-06T07:54:53.290Z,100837.66
2023-05-06T07:57:55.378Z,100836.69
2023-05-06T08:00:57.979Z,100842.88
2023-05-06T08:04:00.761Z,100847.13
2023-05-06T08:07:02.583Z,100849.91
2023-05-06T08:10:04.953Z,100852.63
2023-05-06T08:13:06.830Z,100858.22
2023-05-06T08:16:08.957Z,100859.44
2023-05-06T08:19:11.374Z,100859.59
2023-05-06T08:22:13.056Z,100862.16
2023-05-06T08:25:15.091Z,100869.50
2023-05-06T08:28:17.980Z,100862.97
2023-05-06T08:31:20.056Z,100876.22
2023-05-06T08:34:22.368Z,100873.50
2023-05-06T08:37:24.506Z,100870.91
2023-05-06T08:40:27.259Z,100865.22
2023-05-06T08:43:33.235Z,100866.94
2023-05-06T08:46:35.728Z,100870.34
2023-05-06T08:49:37.509Z,100874.59
2023-05-06T08:52:40.237Z,100874.66
2023-05-06T08:55:42.648Z,100881.75
2023-05-06T08:58:52.003Z,100876.00
2023-05-06T09:01:53.650Z,100880.81
2023-05-06T09:04:56.720Z,100885.00
2023-05-06T09:07:58.599Z,100882.56
2023-05-06T09:11:00.467Z,100883.06
2023-05-06T09:14:10.125Z,100881.88
2023-05-06T09:17:29.165Z,100887.53
2023-05-06T09:20:40.197Z,100889.75
2023-05-06T09:23:42.239Z,100884.97
2023-05-06T09:26:47.272Z,100887.59
2023-05-06T09:30:07.129Z,100883.16
2023-05-06T09:33:12.674Z,100882.13
2023-05-06T09:36:15.637Z,100888.56
2023-05-06T09:39:17.807Z,100888.25
2023-05-06T09:42:21.768Z,100893.03
2023-05-06T09:45:24.397Z,100888.25
2023-05-06T09:48:32.474Z,100902.22
2023-05-06T09:51:34.933Z,100893.69
2023-05-06T09:54:36.972Z,100895.38
2023-05-06T09:57:40.864Z,100893.34
2023-05-06T10:00:43.829Z,100894.56
2023-05-06T10:03:46.457Z,100893.59
2023-05-06T10:06:49.766Z,100892.66
2023-05-06T10:09:54.405Z,100890.75
2023-05-06T10:12:56.785Z,100887.22
2023-05-06T10:16:02.929Z,100883.19
2023-05-06T10:19:08.199Z,100882.56
2023-05-06T10:22:30.647Z,100885.06
2023-05-06T10:25:43.761Z,100873.09
2023-05-06T10:28:50.157Z,100876.47
2023-05-06T10:31:57.209Z,100877.47
2023-05-06T10:35:09.727Z,100881.06
2023-05-06T10:38:37.493Z,100873.06
2023-05-06T10:41:40.413Z,100877.69
2023-05-06T10:45:03.823Z,100877.22
2023-05-06T10:48:11.595Z,100879.78
2023-05-06T10:51:20.406Z,100873.59
2023-05-06T10:54:23.648Z,100873.09
2023-05-06T10:57:27.430Z,100881.28
2023-05-06T11:00:34.315Z,100882.56
2023-05-06T11:03:36.659Z,100878.88
2023-05-06T11:06:54.393Z,100880.97
2023-05-06T11:10:08.291Z,100877.63
2023-05-06T11:13:29.242Z,100877.50
2023-05-06T11:16:50.556Z,100884.41
2023-05-06T11:20:33.402Z,100879.81
2023-05-06T11:23:50.733Z,100882.25
2023-05-06T11:26:52.988Z,100884.03
2023-05-06T11:29:55.862Z,100885.69
2023-05-06T11:33:05.425Z,100885.22
2023-05-06T11:36:14.191Z,100884.06
2023-05-06T11:39:16.041Z,100885.72
2023-05-06T11:42:25.231Z,100881.94
2023-05-06T11:45:39.911Z,100873.91
2023-05-06T11:48:43.662Z,100886.72
2023-05-06T11:51:48.756Z,100881.94
2023-05-06T11:54:54.034Z,100874.47
2023-05-06T11:57:56.158Z,100874.34
2023-05-06T12:01:03.142Z,100873.25
2023-05-06T12:04:05.879Z,100878.56
2023-05-06T12:07:10.184Z,100875.22
2023-05-06T12:10:12.435Z,100867.84
2023-05-06T12:13:16.404Z,100881.97
2023-05-06T12:16:18.409Z,100881.28
2023-05-06T12:19:21.611Z,100882.03
2023-05-06T12:22:27.108Z,100873.38
2023-05-06T12:25:29.232Z,100883.56
2023-05-06T12:28:32.770Z,100878.94
2023-05-06T12:31:35.502Z,100880.56
2023-05-06T12:34:43.907Z,100880.91
2023-05-06T12:37:45.936Z,100884.03
2023-05-06T12:40:56.506Z,100883.13
2023-05-06T12:43:58.432Z,100879.63
2023-05-06T12:47:01.792Z,100877.75
2023-05-06T12:50:04.061Z,100877.06
2023-05-06T12:53:08.116Z,100884.84
2023-05-06T12:56:10.229Z,100878.09
2023-05-06T12:59:13.918Z,100878.16
2023-05-06T13:02:16.243Z,100877.13
2023-05-06T13:05:18.328Z,100875.50
2023-05-06T13:08:20.028Z,100880.41
2023-05-06T13:11:22.418Z,100873.94
2023-05-06T13:14:24.593Z,100870.41
2023-05-06T13:17:27.671Z,100869.84
2023-05-06T13:20:32.874Z,100885.06
2023-05-06T13:23:36.743Z,100872.31
2023-05-06T13:26:38.925Z,100880.56
2023-05-06T13:29:41.184Z,100867.88
2023-05-06T13:32:42.981Z,100876.25
2023-05-06T13:35:49.826Z,100875.69
2023-05-06T13:38:52.356Z,100884.22
2023-05-06T13:41:54.380Z,100877.84
2023-05-06T13:44:56.660Z,100875.13
2023-05-06T13:47:58.771Z,100868.59
2023-05-06T13:51:00.872Z,100873.88
2023-05-06T13:54:04.372Z,100865.06
2023-05-06T13:57:06.394Z,100863.63
2023-05-06T14:00:11.134Z,100861.25
2023-05-06T14:03:13.057Z,100851.97
2023-05-06T14:06:15.438Z,100860.44
2023-05-06T14:09:19.135Z,100859.19
2023-05-06T14:12:23.180Z,100853.28
2023-05-06T14:15:25.081Z,100853.06
2023-05-06T14:18:27.887Z,100844.16
2023-05-06T14:21:29.875Z,100839.09
2023-05-06T14:24:32.276Z,100837.38
2023-05-06T14:27:34.241Z,100842.44
2023-05-06T14:30:37.217Z,100830.25
2023-05-06T14:33:39.442Z,100826.38
2023-05-06T14:36:41.576Z,100834.28
2023-05-06T14:39:43.713Z,100837.63
2023-05-06T14:42:46.298Z,100818.84
2023-05-06T14:45:49.034Z,100823.16
2023-05-06T14:48:51.224Z,100821.00
2023-05-06T14:51:53.670Z,100821.78
2023-05-06T14:54:56.210Z,100818.63
2023-05-06T14:57:58.569Z,100816.50
2023-05-06T15:01:00.568Z,100811.94
2023-05-06T15:04:05.255Z,100812.22
2023-05-06T15:07:08.605Z,100813.88
2023-05-06T15:10:12.052Z,100808.88
2023-05-06T15:13:14.081Z,100799.09
2023-05-06T15:16:16.723Z,100800.31
2023-05-06T15:19:18.947Z,100795.72
2023-05-06T15:22:20.769Z,100805.38
2023-05-06T15:25:34.147Z,100802.16
2023-05-06T15:28:37.366Z,100800.66
2023-05-06T15:31:40.985Z,100794.22
2023-05-06T15:34:43.114Z,100794.63
2023-05-06T15:37:45.406Z,100792.09
2023-05-06T15:40:51.346Z,100787.66
2023-05-06T15:44:00.344Z,100797.78
2023-05-06T15:47:02.410Z,100799.31
2023-05-06T15:50:16.367Z,100798.78
2023-05-06T15:53:25.339Z,100796.88
2023-05-06T15:56:27.344Z,100803.81
2023-05-06T15:59:29.555Z,100800.06
2023-05-06T16:02:32.746Z,100793.47
2023-05-06T16:05:34.894Z,100793.47
2023-05-06T16:08:38.280Z,100809.53
2023-05-06T16:11:40.043Z,100797.47
2023-05-06T16:14:42.062Z,100804.75
2023-05-06T16:17:43.816Z,100801.34
2023-05-06T16:20:45.650Z,100798.56
2023-05-06T16:23:47.513Z,100792.97
2023-05-06T16:26:50.559Z,100801.19
2023-05-06T16:29:52.384Z,100797.00
2023-05-06T16:32:54.473Z,100795.81
2023-05-06T16:35:57.047Z,100795.06
2023-05-06T16:38:58.854Z,100796.34
2023-05-06T16:42:00.913Z,100806.75
2023-05-06T16:45:02.722Z,100801.75
2023-05-06T16:48:05.129Z,100800.41
2023-05-06T16:51:07.106Z,100807.19
2023-05-06T16:54:09.032Z,100798.72
2023-05-06T16:57:11.170Z,100803.91
2023-05-06T17:00:13.740Z,100796.84
2023-05-06T17:03:16.308Z,100797.69
2023-05-06T17:06:18.287Z,100797.69
2023-05-06T17:09:20.619Z,100791.09
2023-05-06T17:12:23.865Z,100804.03
2023-05-06T17:15:25.812Z,100794.88
2023-05-06T17:18:27.877Z,100791.91
2023-05-06T17:21:29.902Z,100797.38
2023-05-06T17:24:32.965Z,100803.53
2023-05-06T17:27:34.968Z,100798.06
2023-05-06T17:30:36.836Z,100796.63
2023-05-06T17:33:39.219Z,100801.16
2023-05-06T17:36:41.076Z,100805.44
2023-05-06T17:39:42.929Z,100809.06
2023-05-06T17:42:44.762Z,100803.81
2023-05-06T17:45:47.016Z,100812.66
2023-05-06T17:48:49.109Z,100821.28
2023-05-06T17:51:51.315Z,100825.41
2023-05-06T17:55:10.734Z,100817.56
2023-05-06T17:58:16.675Z,100831.16
2023-05-06T18:01:18.503Z,100832.88
2023-05-06T18:04:20.815Z,100843.28
2023-05-06T18:07:22.820Z,100854.44
2023-05-06T18:10:24.640Z,100854.31
2023-05-06T18:13:27.578Z,100854.94
2023-05-06T18:16:29.383Z,100863.25
2023-05-06T18:19:31.104Z,100865.97
2023-05-06T18:22:32.934Z,100867.53
2023-05-06T18:25:34.885Z,100876.59
2023-05-06T18:28:43.232Z,100880.38
2023-05-06T18:31:45.386Z,100883.06
2023-05-06T18:34:47.523Z,100883.81
2023-05-06T18:37:49.231Z,100901.97
2023-05-06T18:40:51.129Z,100903.78
2023-05-06T18:43:52.994Z,100902.69
2023-05-06T18:46:54.891Z,100896.50
2023-05-06T18:49:57.659Z,100907.56
2023-05-06T18:53:00.412Z,100905.19
2023-05-06T18:56:02.288Z,100913.66
2023-05-06T18:59:05.096Z,100913.75
2023-05-06T19:02:08.195Z,100921.75
2023-05-06T19:05:10.360Z,100918.44
2023-05-06T19:08:13.748Z,100912.38
2023-05-06T19:11:16.911Z,100925.66
2023-05-06T19:14:19.316Z,100929.53
2023-05-06T19:17:21.014Z,100933.59
2023-05-06T19:20:22.792Z,100932.56
2023-05-06T19:23:24.502Z,100944.78
2023-05-06T19:26:27.181Z,100948.84
2023-05-06T19:29:28.765Z,100944.94
2023-05-06T19:32:32.740Z,100962.09
2023-05-06T19:35:37.376Z,100953.84
2023-05-06T19:38:38.996Z,100947.13
2023-05-06T19:41:40.895Z,100951.63
2023-05-06T19:44:42.675Z,100954.31
2023-05-06T19:47:44.503Z,100953.25
2023-05-06T19:50:46.143Z,100961.19
2023-05-06T19:53:49.148Z,100961.38
2023-05-06T19:56:50.880Z,100964.06
2023-05-06T19:59:53.483Z,100959.44
2023-05-06T20:02:57.820Z,100962.28
2023-05-06T20:05:59.738Z,100964.72
2023-05-06T20:09:01.573Z,100962.47
2023-05-06T20:12:03.776Z,100964.25
2023-05-06T20:15:07.256Z,100958.91
2023-05-06T20:18:09.594Z,100956.19
2023-05-06T20:21:11.651Z,100960.94
2023-05-06T20:24:13.773Z,100966.03
2023-05-06T20:27:16.407Z,100968.75
2023-05-06T20:30:18.355Z,100967.31
2023-05-06T20:33:20.190Z,100967.31
2023-05-06T20:36:22.063Z,100974.56
2023-05-06T20:39:23.960Z,100979.41
2023-05-06T20:42:25.806Z,100974.34
2023-05-06T20:45:30.033Z,100972.22
2023-05-06T20:48:32.103Z,100972.47
2023-05-06T20:51:34.246Z,100968.84
2023-05-06T20:54:36.023Z,100971.56
2023-05-06T20:57:42.280Z,100975.25
2023-05-06T21:00:44.073Z,100977.00
2023-05-06T21:03:48.876Z,100982.22
2023-05-06T21:06:50.967Z,100991.88
2023-05-06T21:09:52.762Z,100987.03
2023-05-06T21:12:54.812Z,100987.03
2023-05-06T21:15:56.812Z,100976.66
2023-05-06T21:18:58.777Z,100982.56
2023-05-06T21:22:00.695Z,100987.88
2023-05-06T21:25:02.379Z,100981.03
2023-05-06T21:28:06.277Z,100976.06
2023-05-06T21:31:08.220Z,100971.81
2023-05-06T21:34:10.752Z,100977.47
2023-05-06T21:37:12.622Z,100982.69
2023-05-06T21:40:14.498Z,100985.75
2023-05-06T21:43:18.075Z,100986.72
2023-05-06T21:46:19.923Z,100986.59
2023-05-06T21:49:22.304Z,100986.00
2023-05-06T21:52:24.654Z,100985.19
2023-05-06T21:55:27.675Z,100993.09
2023-05-06T21:58:29.389Z,100994.16
2023-05-06T22:01:32.157Z,100991.81
2023-05-06T22:04:33.894Z,100989.22
2023-05-06T22:07:36.047Z,100985.19
2023-05-06T22:10:37.874Z,100981.06
2023-05-06T22:13:39.698Z,100977.91
2023-05-06T22:16:42.960Z,100993.47
2023-05-06T22:19:44.851Z,100986.75
2023-05-06T22:22:47.037Z,100987.22
2023-05-06T22:25:48.815Z,100975.88
2023-05-06T22:28:50.696Z,100980.09
2023-05-06T22:31:52.539Z,100986.34
2023-05-06T22:34:55.496Z,100986.25
2023-05-06T22:37:57.149Z,100983.66
2023-05-06T22:40:59.036Z,100995.34
2023-05-06T22:44:00.845Z,100995.75
2023-05-06T22:47:02.578Z,101005.94
2023-05-06T22:50:04.656Z,100998.03
2023-05-06T22:53:14.374Z,100994.13
2023-05-06T22:56:17.169Z,100999.19
2023-05-06T22:59:19.030Z,101002.00
2023-05-06T23:02:20.813Z,100997.53
2023-05-06T23:05:22.555Z,101003.69
2023-05-06T23:08:24.432Z,100998.50
2023-05-06T23:11:26.351Z,101001.19
2023-05-06T23:14:28.748Z,101008.25
2023-05-06T23:17:30.926Z,101006.63
2023-05-06T23:20:32.912Z,101006.97
2023-05-06T23:23:34.756Z,101002.72
2023-05-06T23:26:36.810Z,101003.91
2023-05-06T23:29:38.670Z,101011.69
2023-05-06T23:32:40.538Z,101002.22
2023-05-06T23:35:43.413Z,100998.34
2023-05-06T23:38:45.201Z,101000.13
2023-05-06T23:41:48.057Z,101004.00
2023-05-06T23:44:49.802Z,101010.69
2023-05-06T23:47:52.240Z,101002.00
2023-05-06T23:50:54.528Z,101005.50
2023-05-06T23:53:56.440Z,101003.63
2023-05-06T23:56:58.275Z,101005.25
2023-05-06T23:59:59.959Z,101007.75
